メインページ
METAR-TAF:

METAR-TAF

空港 :

リオブランコ, アクレ州, ブラジル

緯度: 10-00S, 経度: 067-48W, 海抜: 142m

現時点の気象観測

当レポートは45分前の03:00(UTC)に作成
無風
気温 23°C
湿度 100%
気圧 1013 hPa
視程: 9000m

METAR: SBRB 250300Z 00000KT 9000 NSC 23/23 Q1013

時間: 22:45 (03:45 UTC)

予報

当レポートは5時間45分前の22:00(UTC)に作成
予報は25日の 00時(UTC)から 25日の 24時(UTC)まで有効
の風 5kt
視程: 8000m
高度2000ftの雲は散在している
確率 30% :
25日の 00時(UTC)から 25日の 02時(UTC)まで一時的に
高度2000ftの雲は散在している
高度2500ftの雲はほとんどない, 積乱雲.
激しい雷雨
25日の 02時(UTC)から 25日の 04時(UTC)まで徐々に
北/北東の風 3kt
高度1000ftの雲は散在している
確率 40%
25日の 07時(UTC)から 25日の 11時(UTC)まで
視程: 2000m
高度200ftの千切れ雲あり
25日の 16時(UTC)から 25日の 18時(UTC)まで徐々に
の風 8kt
高度2000ftの雲は散在している
高度3000ftの雲はほとんどない, 塔状積雲.
確率 30% :
25日の 18時(UTC)から 25日の 22時(UTC)まで一時的に
高度2000ftの千切れ雲あり
高度2500ftの雲はほとんどない, 積乱雲.
激しい雷雨
25日の 22時(UTC)から 25日の 24時(UTC)まで徐々に
高度2000ftの雲は散在している

TAF: SBRB 242200Z 2500/2524 35005KT 8000 SCT020 TN24/2509Z TX30/2519Z PROB30 TEMPO 2500/2502 TS SCT020 FEW025CB BECMG 2502/2504 02003KT SCT010 PROB40 2507/2511 2000 BR BKN002 BECMG 2516/2518 01008KT SCT020 FEW030TCU PROB30 TEMPO 2518/2522 TS BKN020 FEW025CB BECMG 2522/2524 SCT020 RMK PFD

4,000以上の空港の気象観測と天気予報(METAR報とTAF報)

利用可能な観測所は地図上に黄色い丸と赤い丸で示す。

丸の上にカーソルを重ねると観測所名を参照できる。

次にクリックすると気象観測と天気予報を参照できる。

マップの切り替え:黒色「×」印の緑ボタンをクリックして拡大、「-」印の緑ボタンをクリックして縮小、緑色の三角印をクリックして隣りの地図に切り替え


METAR-TAF: